createdAt,value
2023-03-10T00:00:21.516Z,1.18
2023-03-10T00:03:29.286Z,1.19
2023-03-10T00:06:37.029Z,1.21
2023-03-10T00:09:45.037Z,1.21
2023-03-10T00:12:52.736Z,1.22
2023-03-10T00:16:00.317Z,1.19
2023-03-10T00:19:07.983Z,1.15
2023-03-10T00:22:15.807Z,1.15
2023-03-10T00:25:23.445Z,1.18
2023-03-10T00:28:31.100Z,1.19
2023-03-10T00:31:39.006Z,1.16
2023-03-10T00:34:46.108Z,1.14
2023-03-10T00:37:53.677Z,1.18
2023-03-10T00:41:01.306Z,1.19
2023-03-10T00:44:08.826Z,1.21
2023-03-10T00:47:16.165Z,1.25
2023-03-10T00:50:24.227Z,1.28
2023-03-10T00:53:31.371Z,1.26
2023-03-10T00:56:39.181Z,1.25
2023-03-10T00:59:50.706Z,1.25
2023-03-10T01:02:47.260Z,1.28
2023-03-10T01:05:55.092Z,1.32
2023-03-10T01:09:02.921Z,1.28
2023-03-10T01:12:10.098Z,1.28
2023-03-10T01:15:17.869Z,1.28
2023-03-10T01:18:25.526Z,1.26
2023-03-10T01:21:33.047Z,1.28
2023-03-10T01:24:40.669Z,1.29
2023-03-10T01:27:48.229Z,1.32
2023-03-10T01:30:55.897Z,1.32
2023-03-10T01:34:03.460Z,1.29
2023-03-10T01:37:10.931Z,1.32
2023-03-10T01:40:18.683Z,1.33
2023-03-10T01:43:25.782Z,1.32
2023-03-10T01:46:33.749Z,1.29
2023-03-10T01:49:41.288Z,1.28
2023-03-10T01:52:48.383Z,1.26
2023-03-10T01:55:56.228Z,1.24
2023-03-10T01:59:03.445Z,1.25
2023-03-10T02:02:10.602Z,1.28
2023-03-10T02:05:18.500Z,1.32
2023-03-10T02:08:26.048Z,1.33
2023-03-10T02:11:33.669Z,1.33
2023-03-10T02:14:41.611Z,1.33
2023-03-10T02:17:49.026Z,1.34
2023-03-10T02:20:56.577Z,1.32
2023-03-10T02:24:03.896Z,1.37
2023-03-10T02:27:11.616Z,1.39
2023-03-10T02:30:18.993Z,1.37
2023-03-10T02:33:26.387Z,1.39
2023-03-10T02:36:34.427Z,1.40
2023-03-10T02:39:41.850Z,1.40
2023-03-10T02:42:49.240Z,1.37
2023-03-10T02:45:57.111Z,1.36
2023-03-10T02:49:04.324Z,1.40
2023-03-10T02:52:12.054Z,1.43
2023-03-10T02:55:20.136Z,1.44
2023-03-10T02:58:27.156Z,1.44
2023-03-10T03:01:34.828Z,1.43
2023-03-10T03:04:42.695Z,1.46
2023-03-10T03:07:49.882Z,1.47
2023-03-10T03:10:57.606Z,1.47
2023-03-10T03:14:05.631Z,1.50
2023-03-10T03:17:12.688Z,1.51
2023-03-10T03:20:20.469Z,1.55
2023-03-10T03:23:27.865Z,1.55
2023-03-10T03:26:35.301Z,1.57
2023-03-10T03:29:43.158Z,1.55
2023-03-10T03:32:50.628Z,1.54
2023-03-10T03:35:58.116Z,1.54
2023-03-10T03:39:05.848Z,1.55
2023-03-10T03:42:13.344Z,1.60
2023-03-10T03:45:21.861Z,1.60
2023-03-10T03:48:29.204Z,1.61
2023-03-10T03:51:37.310Z,1.64
2023-03-10T03:54:45.280Z,1.68
2023-03-10T03:57:52.689Z,1.65
2023-03-10T04:01:00.754Z,1.64
2023-03-10T04:04:08.598Z,1.65
2023-03-10T04:07:15.957Z,1.65
2023-03-10T04:10:23.774Z,1.65
2023-03-10T04:13:32.116Z,1.65
2023-03-10T04:16:39.389Z,1.65
2023-03-10T04:19:54.173Z,1.65
2023-03-10T04:22:52.351Z,1.64
2023-03-10T04:25:59.992Z,1.68
2023-03-10T04:29:07.755Z,1.65
2023-03-10T04:32:15.277Z,1.68
2023-03-10T04:35:22.875Z,1.69
2023-03-10T04:38:30.684Z,1.64
2023-03-10T04:41:37.884Z,1.68
2023-03-10T04:44:45.669Z,1.75
2023-03-10T04:47:53.409Z,1.78
2023-03-10T04:51:01.445Z,1.75
2023-03-10T04:54:08.902Z,1.76
2023-03-10T04:57:16.649Z,1.80
2023-03-10T05:00:24.468Z,1.78
2023-03-10T05:03:32.191Z,1.76
2023-03-10T05:06:39.765Z,1.75
2023-03-10T05:09:47.875Z,1.75
2023-03-10T05:12:55.323Z,1.78
2023-03-10T05:16:03.087Z,1.76
2023-03-10T05:19:10.725Z,1.76
2023-03-10T05:22:17.986Z,1.78
2023-03-10T05:25:25.853Z,1.80
2023-03-10T05:28:34.024Z,1.80
2023-03-10T05:31:41.261Z,1.82
2023-03-10T05:34:49.651Z,1.85
2023-03-10T05:37:57.790Z,1.82
2023-03-10T05:41:05.061Z,1.85
2023-03-10T05:44:12.981Z,1.87
2023-03-10T05:47:20.479Z,1.89
2023-03-10T05:50:28.141Z,1.89
2023-03-10T05:53:35.971Z,1.90
2023-03-10T05:56:43.437Z,1.89
2023-03-10T05:59:51.068Z,1.91
2023-03-10T06:02:58.587Z,1.93
2023-03-10T06:06:06.239Z,1.93
2023-03-10T06:09:13.868Z,1.91
2023-03-10T06:12:20.991Z,1.94
2023-03-10T06:15:28.830Z,1.97
2023-03-10T06:18:36.415Z,1.93
2023-03-10T06:21:43.830Z,1.90
2023-03-10T06:24:51.627Z,1.90
2023-03-10T06:27:59.119Z,1.89
2023-03-10T06:31:06.505Z,1.90
2023-03-10T06:34:14.384Z,1.91
2023-03-10T06:37:21.533Z,1.94
2023-03-10T06:40:29.427Z,1.99
2023-03-10T06:43:37.215Z,2.10
2023-03-10T06:46:44.411Z,2.17
2023-03-10T06:49:52.472Z,2.28
2023-03-10T06:53:00.260Z,2.35
2023-03-10T06:56:07.949Z,2.44
2023-03-10T06:59:15.280Z,2.51
2023-03-10T07:02:23.009Z,2.56
2023-03-10T07:05:30.360Z,2.59
2023-03-10T07:08:37.589Z,2.63
2023-03-10T07:11:45.009Z,2.66
2023-03-10T07:14:52.468Z,2.69
2023-03-10T07:17:59.942Z,2.73
2023-03-10T07:21:07.118Z,2.79
2023-03-10T07:24:14.901Z,2.87
2023-03-10T07:27:22.539Z,2.94
2023-03-10T07:30:29.986Z,2.95
2023-03-10T07:33:37.791Z,3.02
2023-03-10T07:36:45.221Z,3.00
2023-03-10T07:39:52.831Z,3.07
2023-03-10T07:43:00.895Z,3.12
2023-03-10T07:46:08.090Z,3.16
2023-03-10T07:49:15.866Z,3.27
2023-03-10T07:52:23.696Z,3.33
2023-03-10T07:55:30.847Z,3.34
2023-03-10T07:58:39.395Z,3.43
2023-03-10T08:01:47.246Z,3.50
2023-03-10T08:04:54.393Z,3.54
2023-03-10T08:08:02.088Z,3.61
2023-03-10T08:11:09.540Z,3.65
2023-03-10T08:14:19.140Z,3.71
2023-03-10T08:17:27.591Z,3.71
2023-03-10T08:20:34.706Z,3.76
2023-03-10T08:23:42.227Z,3.78
2023-03-10T08:26:49.734Z,3.78
2023-03-10T08:29:57.437Z,3.76
2023-03-10T08:33:06.032Z,3.78
2023-03-10T08:36:13.593Z,3.85
2023-03-10T08:39:21.268Z,3.89
2023-03-10T08:42:29.148Z,3.94
2023-03-10T08:45:36.170Z,3.96
2023-03-10T08:48:43.810Z,4.04
2023-03-10T08:51:51.691Z,4.14
2023-03-10T08:55:00.067Z,4.16
2023-03-10T08:58:07.936Z,4.21
2023-03-10T09:01:15.362Z,4.22
2023-03-10T09:04:22.761Z,4.24
2023-03-10T09:07:30.520Z,4.26
2023-03-10T09:10:37.876Z,4.26
2023-03-10T09:13:45.653Z,4.26
2023-03-10T09:16:53.485Z,4.36
2023-03-10T09:20:00.902Z,4.36
2023-03-10T09:23:08.307Z,4.42
2023-03-10T09:26:16.118Z,4.39
2023-03-10T09:29:41.791Z,4.36
2023-03-10T09:32:28.452Z,4.37
2023-03-10T09:35:41.617Z,4.37
2023-03-10T09:38:40.830Z,4.50
2023-03-10T09:41:48.370Z,4.55
2023-03-10T09:44:55.757Z,4.51
2023-03-10T09:48:04.803Z,4.36
2023-03-10T09:51:12.075Z,4.40
2023-03-10T09:54:19.724Z,4.37
2023-03-10T09:57:27.192Z,4.40
2023-03-10T10:00:34.255Z,4.21
2023-03-10T10:03:52.275Z,4.28
2023-03-10T10:06:48.514Z,4.37
2023-03-10T10:09:55.594Z,4.47
2023-03-10T10:13:03.110Z,4.58
2023-03-10T10:16:28.124Z,4.52
2023-03-10T10:19:15.294Z,4.58
2023-03-10T10:22:22.725Z,4.55
2023-03-10T10:25:30.111Z,4.64
2023-03-10T10:28:38.055Z,4.57
2023-03-10T10:31:45.134Z,4.69
2023-03-10T10:34:52.612Z,4.70
2023-03-10T10:38:00.649Z,4.67
2023-03-10T10:41:08.248Z,4.57
2023-03-10T10:44:16.198Z,4.46
2023-03-10T10:47:23.580Z,4.64
2023-03-10T10:50:30.941Z,4.69
2023-03-10T10:53:38.863Z,4.73
2023-03-10T10:56:46.025Z,4.62
2023-03-10T10:59:53.376Z,4.65
2023-03-10T11:03:01.317Z,4.65
2023-03-10T11:06:08.736Z,4.72
2023-03-10T11:09:16.703Z,4.86
2023-03-10T11:12:24.307Z,4.88
2023-03-10T11:15:31.740Z,4.94
2023-03-10T11:18:39.233Z,5.02
2023-03-10T11:21:46.288Z,5.10
2023-03-10T11:24:53.975Z,5.13
2023-03-10T11:28:01.344Z,5.07
2023-03-10T11:31:08.716Z,4.76
2023-03-10T11:34:16.130Z,4.73
2023-03-10T11:37:23.095Z,4.83
2023-03-10T11:40:30.746Z,5.02
2023-03-10T11:43:38.644Z,5.17
2023-03-10T11:46:45.580Z,5.13
2023-03-10T11:49:53.265Z,5.19
2023-03-10T11:53:01.180Z,5.16
2023-03-10T11:56:08.235Z,5.25
2023-03-10T11:59:16.117Z,5.27
2023-03-10T12:02:23.454Z,5.32
2023-03-10T12:05:30.903Z,5.30
2023-03-10T12:08:38.394Z,5.17
2023-03-10T12:11:45.646Z,5.27
2023-03-10T12:14:52.944Z,5.19
2023-03-10T12:18:00.248Z,5.13
2023-03-10T12:21:07.629Z,5.25
2023-03-10T12:24:14.858Z,5.53
2023-03-10T12:27:21.819Z,5.63
2023-03-10T12:30:29.567Z,5.59
2023-03-10T12:33:36.960Z,5.86
2023-03-10T12:36:43.978Z,5.89
2023-03-10T12:39:51.550Z,5.73
2023-03-10T12:42:58.990Z,5.41
2023-03-10T12:46:05.998Z,5.45
2023-03-10T12:49:13.488Z,5.52
2023-03-10T12:52:20.918Z,5.40
2023-03-10T12:55:28.239Z,5.14
2023-03-10T12:58:35.630Z,4.99
2023-03-10T13:01:55.156Z,5.05
2023-03-10T13:04:48.164Z,5.05
2023-03-10T13:07:55.451Z,4.95
2023-03-10T13:11:03.083Z,5.10
2023-03-10T13:14:10.658Z,5.16
2023-03-10T13:17:17.657Z,5.05
2023-03-10T13:20:25.651Z,4.89
2023-03-10T13:23:32.628Z,4.84
2023-03-10T13:26:40.274Z,4.80
2023-03-10T13:29:47.542Z,4.77
2023-03-10T13:32:54.900Z,4.83
2023-03-10T13:36:02.801Z,4.98
2023-03-10T13:39:10.093Z,5.09
2023-03-10T13:42:17.059Z,4.86
2023-03-10T13:45:24.674Z,4.73
2023-03-10T13:48:31.991Z,4.64
2023-03-10T13:51:39.481Z,4.46
2023-03-10T13:54:47.076Z,4.46
2023-03-10T13:57:54.336Z,4.47
2023-03-10T14:01:02.005Z,4.47
2023-03-10T14:04:09.294Z,4.47
2023-03-10T14:07:17.279Z,4.34
2023-03-10T14:10:24.884Z,4.39
2023-03-10T14:13:32.236Z,4.37
2023-03-10T14:16:40.022Z,4.34
2023-03-10T14:19:47.089Z,4.47
2023-03-10T14:22:54.764Z,4.54
2023-03-10T14:26:02.475Z,4.51
2023-03-10T14:29:09.501Z,4.50
2023-03-10T14:32:17.413Z,4.50
2023-03-10T14:35:24.774Z,4.46
2023-03-10T14:38:31.907Z,4.37
2023-03-10T14:41:39.550Z,4.24
2023-03-10T14:44:47.437Z,4.15
2023-03-10T14:47:54.755Z,4.21
2023-03-10T14:51:02.526Z,4.19
2023-03-10T14:54:10.215Z,4.15
2023-03-10T14:57:17.247Z,4.01
2023-03-10T15:00:25.379Z,4.06
2023-03-10T15:03:32.368Z,4.06
2023-03-10T15:06:39.933Z,3.88
2023-03-10T15:09:48.502Z,3.85
2023-03-10T15:12:57.051Z,3.78
2023-03-10T15:16:04.517Z,3.79
2023-03-10T15:19:12.304Z,3.83
2023-03-10T15:22:19.635Z,3.80
2023-03-10T15:25:27.030Z,3.76
2023-03-10T15:28:36.248Z,3.68
2023-03-10T15:31:43.455Z,3.65
2023-03-10T15:34:50.928Z,3.64
2023-03-10T15:37:58.157Z,3.64
2023-03-10T15:41:05.582Z,3.61
2023-03-10T15:44:12.922Z,3.60
2023-03-10T15:47:20.638Z,3.50
2023-03-10T15:50:28.157Z,3.49
2023-03-10T15:53:35.513Z,3.53
2023-03-10T15:56:43.435Z,3.57
2023-03-10T15:59:51.104Z,3.58
2023-03-10T16:02:58.462Z,3.60
2023-03-10T16:06:05.901Z,3.62
2023-03-10T16:09:12.932Z,3.61
2023-03-10T16:12:21.042Z,3.57
2023-03-10T16:15:28.841Z,3.50
2023-03-10T16:18:36.807Z,3.46
2023-03-10T16:21:44.282Z,3.47
2023-03-10T16:24:52.003Z,3.46
2023-03-10T16:27:59.110Z,3.44
2023-03-10T16:31:06.828Z,3.44
2023-03-10T16:34:14.158Z,3.42
2023-03-10T16:37:21.522Z,3.42
2023-03-10T16:40:29.320Z,3.43
2023-03-10T16:43:36.503Z,3.33
2023-03-10T16:46:43.878Z,3.33
2023-03-10T16:49:52.770Z,3.27
2023-03-10T16:52:59.948Z,3.28
2023-03-10T16:56:07.642Z,3.28
2023-03-10T16:59:16.996Z,3.25
2023-03-10T17:02:25.791Z,3.30
2023-03-10T17:05:33.194Z,3.33
2023-03-10T17:08:41.127Z,3.30
2023-03-10T17:11:49.277Z,3.24
2023-03-10T17:14:57.319Z,3.20
2023-03-10T17:18:04.574Z,3.15
2023-03-10T17:21:12.326Z,3.13
2023-03-10T17:24:19.589Z,3.10
2023-03-10T17:27:26.989Z,3.09
2023-03-10T17:30:34.858Z,3.07
2023-03-10T17:33:42.588Z,3.03
2023-03-10T17:36:42.484Z,3.03
2023-03-10T17:39:50.251Z,3.03
2023-03-10T17:42:59.879Z,3.00
2023-03-10T17:46:01.072Z,3.00
2023-03-10T17:49:08.537Z,2.95
2023-03-10T17:52:15.674Z,2.94
2023-03-10T17:55:23.527Z,2.92
2023-03-10T17:58:30.726Z,2.95
2023-03-10T18:01:38.372Z,2.97
2023-03-10T18:04:46.479Z,2.98
2023-03-10T18:07:53.994Z,2.98
2023-03-10T18:11:01.969Z,2.94
2023-03-10T18:14:09.664Z,2.91
2023-03-10T18:17:17.788Z,2.89
2023-03-10T18:20:24.962Z,2.91
2023-03-10T18:23:33.139Z,2.88
2023-03-10T18:26:40.946Z,2.82
2023-03-10T18:29:48.572Z,2.79
2023-03-10T18:32:56.245Z,2.79
2023-03-10T18:36:03.783Z,2.74
2023-03-10T18:39:11.344Z,2.70
2023-03-10T18:42:18.832Z,2.66
2023-03-10T18:45:26.472Z,2.64
2023-03-10T18:48:34.553Z,2.63
2023-03-10T18:51:42.935Z,2.66
2023-03-10T18:54:50.647Z,2.69
2023-03-10T18:57:59.051Z,2.66
2023-03-10T19:01:07.012Z,2.61
2023-03-10T19:04:14.643Z,2.56
2023-03-10T19:07:22.319Z,2.61
2023-03-10T19:10:30.026Z,2.63
2023-03-10T19:13:37.646Z,2.56
2023-03-10T19:16:45.207Z,2.56
2023-03-10T19:19:53.232Z,2.59
2023-03-10T19:23:00.444Z,2.61
2023-03-10T19:26:08.245Z,2.63
2023-03-10T19:29:16.355Z,2.61
2023-03-10T19:32:23.602Z,2.61
2023-03-10T19:35:31.368Z,2.59
2023-03-10T19:38:39.201Z,2.56
2023-03-10T19:41:46.392Z,2.53
2023-03-10T19:44:54.352Z,2.46
2023-03-10T19:48:01.968Z,2.45
2023-03-10T19:51:09.778Z,2.44
2023-03-10T19:54:17.353Z,2.44
2023-03-10T19:57:24.976Z,2.41
2023-03-10T20:00:32.421Z,2.41
2023-03-10T20:03:40.217Z,2.37
2023-03-10T20:06:47.654Z,2.35
2023-03-10T20:09:55.329Z,2.41
2023-03-10T20:13:03.031Z,2.45
2023-03-10T20:16:10.200Z,2.45
2023-03-10T20:19:17.537Z,2.37
2023-03-10T20:22:24.876Z,2.31
2023-03-10T20:25:32.410Z,2.26
2023-03-10T20:28:40.102Z,2.20
2023-03-10T20:31:47.347Z,2.20
2023-03-10T20:34:54.937Z,2.19
2023-03-10T20:38:02.768Z,2.19
2023-03-10T20:41:10.186Z,2.16
2023-03-10T20:44:17.654Z,2.04
2023-03-10T20:47:25.223Z,1.79
2023-03-10T20:50:33.206Z,1.57
2023-03-10T20:53:41.042Z,1.34
2023-03-10T20:56:48.618Z,1.15
2023-03-10T20:59:56.543Z,1.06
2023-03-10T21:03:04.105Z,0.97
2023-03-10T21:06:11.928Z,0.92
2023-03-10T21:09:19.856Z,0.89
2023-03-10T21:12:26.928Z,0.82
2023-03-10T21:15:34.758Z,0.71
2023-03-10T21:18:42.694Z,0.70
2023-03-10T21:21:49.967Z,0.70
2023-03-10T21:24:57.765Z,0.67
2023-03-10T21:28:05.742Z,0.64
2023-03-10T21:31:13.009Z,0.64
2023-03-10T21:34:21.020Z,0.62
2023-03-10T21:37:28.483Z,0.64
2023-03-10T21:40:36.110Z,0.64
2023-03-10T21:43:43.975Z,0.62
2023-03-10T21:46:51.386Z,0.62
2023-03-10T21:49:58.887Z,0.61
2023-03-10T21:53:06.759Z,0.58
2023-03-10T21:56:14.188Z,0.60
2023-03-10T21:59:21.758Z,0.61
2023-03-10T22:02:29.339Z,0.60
2023-03-10T22:05:36.772Z,0.58
2023-03-10T22:08:44.437Z,0.60
2023-03-10T22:11:51.710Z,0.60
2023-03-10T22:14:59.795Z,0.61
2023-03-10T22:18:07.247Z,0.60
2023-03-10T22:21:14.428Z,0.60
2023-03-10T22:24:22.314Z,0.60
2023-03-10T22:27:29.733Z,0.58
2023-03-10T22:30:37.419Z,0.58
2023-03-10T22:33:45.407Z,0.58
2023-03-10T22:36:52.625Z,0.60
2023-03-10T22:40:00.216Z,0.61
2023-03-10T22:43:07.940Z,0.60
2023-03-10T22:46:15.219Z,0.60
2023-03-10T22:49:23.010Z,0.57
2023-03-10T22:52:30.856Z,0.60
2023-03-10T22:55:37.988Z,0.57
2023-03-10T22:58:46.090Z,0.58
2023-03-10T23:01:53.750Z,0.58
2023-03-10T23:05:02.112Z,0.58
2023-03-10T23:08:10.335Z,0.58
2023-03-10T23:11:17.884Z,0.57
2023-03-10T23:14:25.511Z,0.58
2023-03-10T23:17:33.786Z,0.53
2023-03-10T23:20:40.806Z,0.57
2023-03-10T23:23:48.317Z,0.53
2023-03-10T23:26:56.326Z,0.57
2023-03-10T23:30:03.424Z,0.53
2023-03-10T23:33:11.249Z,0.57
2023-03-10T23:36:18.793Z,0.58
2023-03-10T23:39:26.291Z,0.57
2023-03-10T23:42:34.152Z,0.57
2023-03-10T23:45:41.640Z,0.58
2023-03-10T23:48:49.128Z,0.58
2023-03-10T23:51:57.060Z,0.58
2023-03-10T23:55:04.666Z,0.60
2023-03-10T23:58:12.366Z,0.60
